Time;durP1;ratioP1;P1;durP2;ratioP2;P2;SDS_P1;SDS_P2;PMS_P1;PMS_P2;Temp;Humidity;BMP_temperature;BMP_pressure;BME280_temperature;BME280_humidity;BME280_pressure;Samples;Min_cycle;Max_cycle;Signal;HPM_P1;HPM_P2
2022/09/05 00:02:36;;;;;;;3.50;3.07;;;16.60;99.90;;;;;;5048564;28;20581;-73
2022/09/05 00:05:33;;;;;;;5.20;3.40;;;16.40;99.90;;;;;;5047203;28;20445;-73
2022/09/05 00:08:28;;;;;;;4.90;3.10;;;16.40;99.90;;;;;;5050394;28;20421;-73
2022/09/05 00:11:19;;;;;;;3.73;2.93;;;16.40;99.90;;;;;;5046200;28;20447;-73
2022/09/05 00:14:23;;;;;;;3.83;2.87;;;16.30;99.90;;;;;;5042203;28;20462;-74
2022/09/05 00:17:22;;;;;;;3.77;3.13;;;16.30;99.90;;;;;;5049887;28;21101;-72
2022/09/05 00:20:18;;;;;;;3.93;3.00;;;16.30;99.90;;;;;;5047904;28;20418;-73
2022/09/05 00:23:13;;;;;;;4.53;2.80;;;16.40;99.90;;;;;;5044558;28;20451;-73
2022/09/05 00:26:16;;;;;;;4.77;3.50;;;16.50;99.90;;;;;;5050212;28;20460;-73
2022/09/05 00:29:13;;;;;;;4.57;3.00;;;16.60;99.90;;;;;;5056420;28;20463;-73
2022/09/05 00:32:07;;;;;;;5.07;3.37;;;16.60;99.90;;;;;;5038118;28;20500;-73
2022/09/05 00:35:05;;;;;;;4.20;3.13;;;16.50;99.90;;;;;;5048361;28;20447;-73
2022/09/05 00:37:52;;;;;;;3.90;3.20;;;16.60;99.90;;;;;;5055856;28;20875;-73
2022/09/05 00:40:43;;;;;;;3.40;2.97;;;16.60;99.90;;;;;;5040803;28;20788;-72
2022/09/05 00:43:34;;;;;;;4.03;2.83;;;16.60;99.90;;;;;;5043504;28;20440;-72
2022/09/05 00:46:25;;;;;;;5.30;3.10;;;16.50;99.90;;;;;;5053070;28;20437;-73
2022/09/05 00:49:24;;;;;;;7.83;3.03;;;16.60;99.90;;;;;;5054518;28;20790;-73
2022/09/05 00:52:18;;;;;;;5.93;3.30;;;16.70;99.90;;;;;;5043117;28;21102;-73
2022/09/05 00:55:16;;;;;;;4.50;3.17;;;16.70;99.90;;;;;;5051347;28;20450;-73
2022/09/05 00:58:23;;;;;;;5.53;3.40;;;16.60;99.90;;;;;;5052043;28;20445;-73
2022/09/05 01:01:28;;;;;;;5.40;3.70;;;16.60;99.90;;;;;;5049034;28;20416;-73
2022/09/05 01:04:29;;;;;;;3.80;2.57;;;16.40;99.90;;;;;;5059028;28;20854;-73
2022/09/05 01:07:31;;;;;;;3.40;2.63;;;16.40;99.90;;;;;;5042084;28;20485;-74
2022/09/05 01:10:25;;;;;;;3.40;3.10;;;16.40;99.90;;;;;;5057720;28;20532;-72
2022/09/05 01:13:22;;;;;;;4.20;3.10;;;16.30;99.90;;;;;;5050236;28;20571;-73
2022/09/05 01:16:22;;;;;;;4.10;3.20;;;16.30;99.90;;;;;;5050486;28;20489;-73
2022/09/05 01:19:19;;;;;;;3.53;2.97;;;16.10;99.90;;;;;;5062765;28;20433;-74
2022/09/05 01:22:31;;;;;;;4.60;3.33;;;16.10;99.90;;;;;;5049415;28;20451;-73
2022/09/05 01:25:30;;;;;;;5.00;3.00;;;16.10;99.90;;;;;;5042194;28;20455;-74
2022/09/05 01:28:25;;;;;;;3.87;2.90;;;16.00;99.90;;;;;;5053297;28;20465;-73
2022/09/05 01:31:18;;;;;;;3.37;2.97;;;15.90;99.90;;;;;;5051383;28;20513;-73
2022/09/05 01:34:14;;;;;;;4.20;3.43;;;15.90;99.90;;;;;;5049968;28;20588;-74
2022/09/05 01:37:05;;;;;;;4.57;3.47;;;15.90;99.90;;;;;;5050239;28;20606;-73
2022/09/05 01:40:02;;;;;;;4.83;3.50;;;16.00;99.90;;;;;;5047174;28;20452;-73
2022/09/05 01:43:04;;;;;;;3.60;2.87;;;16.00;99.90;;;;;;5044500;28;20499;-73
2022/09/05 01:45:55;;;;;;;4.07;3.33;;;16.20;99.90;;;;;;5051414;28;20437;-73
2022/09/05 01:48:51;;;;;;;7.10;3.60;;;16.20;99.90;;;;;;5050724;28;20430;-73
2022/09/05 01:51:46;;;;;;;5.03;3.30;;;16.20;99.90;;;;;;5051907;28;20578;-73
2022/09/05 01:54:40;;;;;;;5.10;3.57;;;16.30;99.90;;;;;;5049446;28;20541;-73
2022/09/05 01:57:37;;;;;;;5.53;3.10;;;16.30;99.90;;;;;;5054944;28;21003;-73
2022/09/05 02:00:28;;;;;;;4.83;3.37;;;16.30;99.90;;;;;;5052354;28;20452;-73
2022/09/05 02:03:24;;;;;;;3.80;3.17;;;16.30;99.90;;;;;;5046850;28;20467;-73
2022/09/05 02:06:35;;;;;;;6.00;3.10;;;16.20;99.90;;;;;;5056373;28;20461;-73
2022/09/05 02:09:36;;;;;;;4.97;3.57;;;16.20;99.90;;;;;;5045466;28;20429;-73
2022/09/05 02:12:30;;;;;;;3.50;3.10;;;16.20;99.90;;;;;;5043850;28;20839;-73
2022/09/05 02:15:20;;;;;;;5.30;3.47;;;16.20;99.90;;;;;;5055639;28;20459;-73
2022/09/05 02:18:11;;;;;;;4.33;3.27;;;16.20;99.90;;;;;;5052992;28;20708;-73
2022/09/05 02:21:01;;;;;;;3.90;3.50;;;16.10;99.90;;;;;;5050061;28;20451;-73
2022/09/05 02:23:54;;;;;;;3.67;2.80;;;16.00;99.90;;;;;;5040720;28;20469;-73
2022/09/05 02:26:52;;;;;;;4.10;3.37;;;15.90;99.90;;;;;;5050839;28;20589;-73
2022/09/05 02:29:43;;;;;;;3.60;3.20;;;15.90;99.90;;;;;;5048514;28;20480;-73
2022/09/05 02:32:38;;;;;;;3.80;3.40;;;15.90;99.90;;;;;;5047511;28;20448;-73
2022/09/05 02:35:30;;;;;;;4.07;3.40;;;15.90;99.90;;;;;;5057154;28;20802;-73
2022/09/05 02:38:22;;;;;;;3.43;3.13;;;15.90;99.90;;;;;;5046417;28;20524;-73
2022/09/05 02:41:25;;;;;;;6.57;3.40;;;15.90;99.90;;;;;;5060475;28;20428;-73
2022/09/05 02:44:15;;;;;;;3.87;3.47;;;15.80;99.90;;;;;;5056044;28;20595;-73
2022/09/05 02:47:12;;;;;;;3.50;3.20;;;15.80;99.90;;;;;;5065860;28;20579;-74
2022/09/05 02:50:08;;;;;;;3.90;3.20;;;15.70;99.90;;;;;;5044571;28;20505;-73
2022/09/05 02:52:54;;;;;;;4.20;3.43;;;15.70;99.90;;;;;;5049637;28;20568;-73
2022/09/05 02:56:08;;;;;;;3.70;2.87;;;15.70;99.90;;;;;;5056240;28;20453;-73
2022/09/05 02:59:03;;;;;;;5.13;3.30;;;15.70;99.90;;;;;;5052457;28;20579;-73
2022/09/05 03:02:00;;;;;;;5.00;3.20;;;15.60;99.90;;;;;;5043825;28;20444;-73
2022/09/05 03:04:51;;;;;;;4.47;3.47;;;15.70;99.90;;;;;;5050995;28;20447;-74
2022/09/05 03:08:03;;;;;;;5.60;3.40;;;15.80;99.90;;;;;;5056073;28;20450;-73
2022/09/05 03:11:19;;;;;;;6.53;3.90;;;15.70;99.90;;;;;;5049846;28;20475;-73
2022/09/05 03:14:56;;;;;;;4.03;3.47;;;15.70;99.90;;;;;;5051162;28;20471;-74
2022/09/05 03:18:09;;;;;;;3.00;2.70;;;15.80;99.90;;;;;;5007960;28;20919;-73
2022/09/05 03:21:29;;;;;;;5.70;3.40;;;15.90;99.90;;;;;;5049985;28;20980;-73
2022/09/05 03:24:41;;;;;;;3.20;2.77;;;15.90;99.90;;;;;;5044523;28;20482;-73
2022/09/05 03:28:02;;;;;;;3.50;2.73;;;15.80;99.90;;;;;;5050315;28;21068;-73
2022/09/05 03:31:05;;;;;;;3.70;3.17;;;15.60;99.90;;;;;;5045319;28;20593;-73
2022/09/05 03:34:23;;;;;;;5.93;4.00;;;15.50;99.90;;;;;;5049124;28;20502;-73
2022/09/05 03:37:30;;;;;;;4.33;3.37;;;15.40;99.90;;;;;;5040523;28;20590;-73
2022/09/05 03:40:35;;;;;;;4.60;2.93;;;15.50;99.90;;;;;;5052145;28;20428;-73
2022/09/05 03:43:42;;;;;;;4.93;3.40;;;15.50;99.90;;;;;;5045388;28;20468;-73
2022/09/05 03:46:41;;;;;;;5.50;3.50;;;15.70;99.90;;;;;;5056095;28;20470;-73
2022/09/05 03:50:05;;;;;;;5.80;3.47;;;15.60;99.90;;;;;;5048068;28;20422;-73
2022/09/05 03:53:04;;;;;;;5.03;3.40;;;15.60;99.90;;;;;;5044872;28;20464;-73
2022/09/05 03:56:09;;;;;;;4.80;3.80;;;15.60;99.90;;;;;;5055944;28;20482;-73
2022/09/05 03:59:16;;;;;;;5.07;3.47;;;15.50;99.90;;;;;;5055732;28;20503;-73
2022/09/05 04:02:04;;;;;;;6.70;3.67;;;15.40;99.90;;;;;;5040557;28;20451;-73
2022/09/05 04:04:55;;;;;;;3.87;2.90;;;15.30;99.90;;;;;;5054749;28;20447;-73
2022/09/05 04:07:44;;;;;;;4.30;3.90;;;15.30;99.90;;;;;;5057624;28;20474;-72
2022/09/05 04:10:35;;;;;;;3.80;3.10;;;15.20;99.90;;;;;;5052173;28;20446;-73
2022/09/05 04:13:26;;;;;;;3.93;2.60;;;15.20;99.90;;;;;;5055082;28;20888;-73
2022/09/05 04:16:17;;;;;;;4.70;3.27;;;15.20;99.90;;;;;;5044000;28;20620;-73
2022/09/05 04:19:11;;;;;;;4.63;3.40;;;15.20;99.90;;;;;;5054425;28;20456;-73
2022/09/05 04:22:09;;;;;;;3.30;2.90;;;15.30;99.90;;;;;;5041734;28;20943;-73
2022/09/05 04:25:01;;;;;;;5.07;3.37;;;15.40;99.90;;;;;;5047591;28;20524;-74
2022/09/05 04:27:53;;;;;;;5.10;3.37;;;15.50;99.90;;;;;;5044954;28;20483;-73
2022/09/05 04:30:44;;;;;;;4.80;3.33;;;15.60;99.90;;;;;;5044091;28;20467;-73
2022/09/05 04:33:38;;;;;;;3.90;3.07;;;15.50;99.90;;;;;;5051946;28;20448;-73
2022/09/05 04:36:29;;;;;;;3.60;2.90;;;15.50;99.90;;;;;;5050177;28;20534;-73
2022/09/05 04:39:26;;;;;;;4.27;3.67;;;15.40;99.90;;;;;;5038198;28;20944;-73
2022/09/05 04:42:20;;;;;;;4.93;3.63;;;15.40;99.90;;;;;;5043479;28;20904;-73
2022/09/05 04:45:11;;;;;;;4.73;3.87;;;15.50;99.90;;;;;;5044123;28;20472;-74
2022/09/05 04:48:01;;;;;;;3.80;3.27;;;15.60;99.90;;;;;;5043394;28;20479;-74
2022/09/05 04:51:02;;;;;;;5.33;4.10;;;15.60;99.90;;;;;;5043330;28;20821;-74
2022/09/05 04:54:12;;;;;;;4.43;3.53;;;15.60;99.90;;;;;;5053652;28;20456;-73
2022/09/05 04:57:09;;;;;;;7.10;3.67;;;15.50;99.90;;;;;;5051063;28;20466;-73
2022/09/05 05:00:02;;;;;;;4.87;3.50;;;15.40;99.90;;;;;;5042399;28;20456;-73
2022/09/05 05:02:51;;;;;;;4.00;3.17;;;15.40;99.90;;;;;;5054018;28;20634;-74
2022/09/05 05:05:55;;;;;;;4.20;3.70;;;15.30;99.90;;;;;;5046964;28;20537;-74
2022/09/05 05:08:46;;;;;;;3.93;3.10;;;15.30;99.90;;;;;;5046636;28;22340;-74
2022/09/05 05:11:46;;;;;;;4.33;3.30;;;15.20;99.90;;;;;;5040143;28;20600;-74
2022/09/05 05:14:41;;;;;;;4.87;3.73;;;15.30;99.90;;;;;;5044771;28;20455;-74
2022/09/05 05:17:33;;;;;;;6.00;3.80;;;15.40;99.90;;;;;;5051705;28;20497;-73
2022/09/05 05:20:25;;;;;;;8.63;2.83;;;15.50;99.90;;;;;;5039944;28;20430;-73
2022/09/05 05:23:15;;;;;;;3.90;2.83;;;15.60;99.90;;;;;;5047188;28;20453;-73
2022/09/05 05:26:04;;;;;;;4.33;3.30;;;15.60;99.90;;;;;;5056462;28;20421;-73
2022/09/05 05:28:56;;;;;;;4.30;3.37;;;15.70;99.90;;;;;;5042583;28;20422;-73
2022/09/05 05:31:50;;;;;;;4.57;3.93;;;15.70;99.90;;;;;;5039960;28;20465;-73
2022/09/05 05:34:45;;;;;;;4.03;3.10;;;15.70;99.90;;;;;;5040871;28;20929;-74
2022/09/05 05:37:35;;;;;;;4.80;3.60;;;15.80;99.90;;;;;;5047420;28;20612;-74
2022/09/05 05:40:28;;;;;;;4.77;3.80;;;15.80;99.90;;;;;;5039766;28;20426;-73
2022/09/05 05:43:15;;;;;;;5.23;3.73;;;16.00;99.90;;;;;;5046701;28;20466;-73
2022/09/05 05:46:01;;;;;;;4.30;3.90;;;16.10;99.90;;;;;;5048822;28;20454;-74
2022/09/05 05:48:47;;;;;;;5.40;3.00;;;16.20;99.90;;;;;;5049051;28;20442;-73
2022/09/05 05:51:43;;;;;;;5.83;3.20;;;16.30;99.90;;;;;;5053975;28;20806;-73
2022/09/05 05:54:35;;;;;;;5.13;3.80;;;16.40;99.90;;;;;;5055228;28;20517;-73
2022/09/05 05:57:49;;;;;;;4.13;3.50;;;16.40;99.90;;;;;;5056210;28;21032;-74
2022/09/05 06:00:57;;;;;;;6.50;4.00;;;16.40;99.90;;;;;;5046776;28;20471;-73
2022/09/05 06:04:19;;;;;;;6.07;4.10;;;16.50;99.90;;;;;;5047850;28;20531;-74
2022/09/05 06:07:12;;;;;;;4.93;4.10;;;16.50;99.90;;;;;;5031584;28;21018;-74
2022/09/05 06:10:43;;;;;;;6.70;3.20;;;16.30;99.90;;;;;;5046891;28;20414;-74
2022/09/05 06:14:00;;;;;;;4.83;4.00;;;16.40;99.90;;;;;;5055864;28;20421;-73
2022/09/05 06:17:12;;;;;;;5.53;3.80;;;16.30;99.90;;;;;;5055758;28;20482;-73
2022/09/05 06:20:41;;;;;;;4.60;3.70;;;16.30;99.90;;;;;;5050222;28;20518;-74
2022/09/05 06:24:12;;;;;;;4.07;3.57;;;16.30;99.90;;;;;;5061052;28;20511;-73
2022/09/05 06:27:32;;;;;;;4.43;3.63;;;16.30;99.90;;;;;;5058960;28;20488;-74
2022/09/05 06:30:21;;;;;;;5.57;3.30;;;16.40;99.90;;;;;;5041165;28;20618;-74
2022/09/05 06:33:16;;;;;;;3.67;3.00;;;16.60;99.90;;;;;;5055251;28;20410;-73
2022/09/05 06:36:15;;;;;;;3.90;3.50;;;16.80;99.90;;;;;;5054383;28;20803;-73
2022/09/05 06:39:13;;;;;;;3.80;3.30;;;16.90;99.90;;;;;;5050205;28;20439;-74
2022/09/05 06:42:16;;;;;;;9.73;3.53;;;17.00;99.90;;;;;;5049291;28;20443;-73
2022/09/05 06:45:26;;;;;;;5.20;3.00;;;17.20;99.90;;;;;;5054559;28;20525;-74
2022/09/05 06:48:17;;;;;;;7.10;4.20;;;17.40;99.90;;;;;;5044219;28;20462;-74
2022/09/05 06:51:44;;;;;;;7.37;3.53;;;17.70;99.90;;;;;;5047234;28;20472;-74
2022/09/05 06:55:02;;;;;;;4.43;3.03;;;17.90;99.90;;;;;;5047954;28;20610;-74
2022/09/05 06:58:21;;;;;;;3.73;3.13;;;18.10;99.90;;;;;;5048905;28;20434;-74
2022/09/05 07:01:10;;;;;;;3.90;3.27;;;18.20;99.90;;;;;;5029340;28;20790;-73
2022/09/05 07:04:13;;;;;;;5.57;2.77;;;18.30;99.90;;;;;;5048172;28;20459;-74
2022/09/05 07:07:15;;;;;;;5.13;3.20;;;18.40;99.90;;;;;;5054609;28;20457;-74
2022/09/05 07:10:04;;;;;;;4.50;3.37;;;18.50;99.90;;;;;;5052152;28;20788;-74
2022/09/05 07:12:53;;;;;;;3.93;3.13;;;18.70;99.90;;;;;;5058928;28;20466;-74
2022/09/05 07:15:50;;;;;;;3.87;3.30;;;18.80;99.90;;;;;;5048007;28;20418;-74
2022/09/05 07:18:47;;;;;;;4.90;3.60;;;18.90;99.90;;;;;;5047505;28;20451;-74
2022/09/05 07:21:42;;;;;;;9.33;3.10;;;19.00;99.90;;;;;;5042810;28;20495;-74
2022/09/05 07:24:29;;;;;;;4.10;3.60;;;19.10;99.90;;;;;;5046332;28;20495;-74
2022/09/05 07:27:33;;;;;;;7.27;3.07;;;19.30;99.90;;;;;;5047131;28;20470;-74
2022/09/05 07:30:19;;;;;;;4.37;2.70;;;19.40;99.90;;;;;;5046424;28;20547;-74
2022/09/05 07:33:06;;;;;;;3.83;2.53;;;19.60;99.90;;;;;;5045341;28;20440;-74
2022/09/05 07:35:57;;;;;;;3.73;3.03;;;19.70;99.90;;;;;;5050096;28;20467;-74
2022/09/05 07:38:49;;;;;;;6.43;3.27;;;19.90;99.90;;;;;;5045576;28;20451;-74
2022/09/05 07:41:38;;;;;;;5.17;2.60;;;20.00;99.90;;;;;;5054828;28;20414;-73
2022/09/05 07:44:29;;;;;;;4.30;2.43;;;20.10;99.90;;;;;;5044766;28;20534;-74
2022/09/05 07:47:21;;;;;;;4.40;2.57;;;20.20;99.90;;;;;;5051200;28;20636;-73
2022/09/05 07:50:11;;;;;;;6.80;2.60;;;20.30;99.90;;;;;;5051377;28;20473;-74
2022/09/05 07:53:02;;;;;;;2.70;2.07;;;20.50;99.90;;;;;;5044629;28;21005;-74
2022/09/05 07:55:52;;;;;;;3.07;2.30;;;20.60;99.90;;;;;;5048397;28;20717;-74
2022/09/05 07:58:42;;;;;;;2.90;2.40;;;20.80;99.90;;;;;;5050939;28;20964;-74
2022/09/05 08:01:28;;;;;;;3.10;1.97;;;20.90;99.90;;;;;;5053050;28;20812;-74
2022/09/05 08:04:27;;;;;;;3.80;2.57;;;21.00;99.90;;;;;;5040348;28;20440;-74
2022/09/05 08:07:15;;;;;;;2.97;1.97;;;21.20;99.90;;;;;;5042780;28;20478;-74
2022/09/05 08:10:08;;;;;;;9.03;2.53;;;21.40;99.90;;;;;;5051975;28;20842;-74
2022/09/05 08:12:57;;;;;;;3.70;2.60;;;21.60;99.90;;;;;;5049587;28;20467;-74
2022/09/05 08:15:47;;;;;;;4.20;2.40;;;21.80;99.90;;;;;;5040212;28;21069;-74
2022/09/05 08:18:38;;;;;;;6.37;2.83;;;21.90;99.90;;;;;;5037952;28;20451;-74
2022/09/05 08:21:33;;;;;;;6.07;2.97;;;22.00;99.90;;;;;;5043693;28;20447;-74
2022/09/05 08:24:26;;;;;;;9.63;2.10;;;22.20;99.90;;;;;;5047543;28;20448;-74
2022/09/05 08:27:17;;;;;;;3.53;2.60;;;22.20;99.90;;;;;;5042918;28;20474;-74
2022/09/05 08:30:07;;;;;;;4.33;1.80;;;22.30;99.90;;;;;;5048670;28;21106;-74
2022/09/05 08:32:59;;;;;;;5.60;1.80;;;22.40;99.90;;;;;;5049361;28;20475;-74
2022/09/05 08:35:48;;;;;;;4.83;2.47;;;22.60;99.90;;;;;;5045404;28;20497;-73
2022/09/05 08:38:37;;;;;;;3.80;2.17;;;22.80;91.10;;;;;;5046999;28;20526;-74
2022/09/05 08:41:27;;;;;;;3.13;1.67;;;22.90;90.40;;;;;;5050295;28;20577;-74
2022/09/05 08:44:19;;;;;;;4.70;2.07;;;23.00;87.20;;;;;;5048131;28;20444;-74
2022/09/05 08:47:18;;;;;;;3.03;2.10;;;23.20;84.40;;;;;;5052091;28;20453;-74
2022/09/05 08:50:22;;;;;;;6.43;2.23;;;23.20;73.30;;;;;;5042851;28;20456;-74
2022/09/05 08:53:17;;;;;;;3.60;2.27;;;23.30;73.40;;;;;;5046860;28;21135;-74
2022/09/05 08:56:09;;;;;;;3.30;2.10;;;23.40;71.80;;;;;;5044543;28;20474;-74
2022/09/05 08:58:59;;;;;;;6.17;1.87;;;23.50;74.70;;;;;;5040089;28;20464;-74
2022/09/05 09:02:11;;;;;;;2.80;1.70;;;23.60;71.80;;;;;;5050906;28;20453;-74
2022/09/05 09:05:08;;;;;;;3.20;2.03;;;23.70;69.60;;;;;;5052364;28;20447;-74
2022/09/05 09:07:57;;;;;;;4.83;1.83;;;23.80;70.30;;;;;;5038054;28;21008;-74
2022/09/05 09:10:54;;;;;;;3.80;2.37;;;23.90;76.00;;;;;;5047820;28;20670;-74
2022/09/05 09:13:52;;;;;;;4.20;2.57;;;23.90;73.20;;;;;;5051699;28;20442;-74
2022/09/05 09:16:47;;;;;;;2.90;1.97;;;24.00;70.20;;;;;;5041838;28;20471;-74
2022/09/05 09:19:45;;;;;;;4.80;1.87;;;24.10;69.10;;;;;;5041839;28;20997;-74
2022/09/05 09:22:39;;;;;;;8.70;2.40;;;24.20;65.70;;;;;;5047816;28;20448;-74
2022/09/05 09:25:29;;;;;;;3.20;2.10;;;24.30;66.00;;;;;;5054551;28;20460;-74
2022/09/05 09:28:45;;;;;;;3.60;2.13;;;24.40;64.60;;;;;;5042241;28;20451;-74
2022/09/05 09:31:45;;;;;;;2.40;1.67;;;24.50;63.80;;;;;;5045975;28;20447;-74
2022/09/05 09:34:59;;;;;;;4.37;1.93;;;24.70;61.40;;;;;;5052141;28;20498;-74
2022/09/05 09:38:13;;;;;;;4.90;1.90;;;24.80;59.60;;;;;;5044511;28;20569;-74
2022/09/05 09:41:30;;;;;;;3.90;2.00;;;24.70;61.00;;;;;;5052945;28;20823;-74
2022/09/05 09:44:52;;;;;;;6.70;3.33;;;24.70;58.30;;;;;;5052540;28;20947;-74
2022/09/05 09:48:11;;;;;;;6.13;3.00;;;24.60;60.10;;;;;;5044721;28;20555;-74
2022/09/05 09:51:25;;;;;;;2.80;2.10;;;24.50;59.70;;;;;;5045648;28;20995;-74
2022/09/05 09:54:45;;;;;;;6.43;1.93;;;24.50;59.00;;;;;;5065242;28;20509;-74
2022/09/05 09:57:59;;;;;;;2.80;2.03;;;24.60;58.20;;;;;;5042402;28;20623;-74
2022/09/05 10:00:50;;;;;;;7.97;1.97;;;24.70;59.80;;;;;;5049018;28;20451;-74
2022/09/05 10:04:11;;;;;;;3.13;2.00;;;24.80;58.40;;;;;;5045963;28;20447;-74
2022/09/05 10:07:27;;;;;;;3.80;1.90;;;24.90;56.30;;;;;;5020700;28;20495;-74
2022/09/05 10:10:57;;;;;;;3.57;2.07;;;24.90;59.10;;;;;;5050347;28;20829;-74
2022/09/05 10:14:16;;;;;;;4.30;2.40;;;25.00;58.60;;;;;;5067465;22;20489;-73
2022/09/05 10:17:28;;;;;;;3.47;1.83;;;25.00;56.50;;;;;;5067073;28;20451;-73
2022/09/05 10:20:38;;;;;;;3.10;2.07;;;25.10;54.30;;;;;;5073351;28;20441;-73
2022/09/05 10:23:57;;;;;;;6.10;2.23;;;25.10;55.80;;;;;;5063474;28;20443;-74
2022/09/05 10:27:05;;;;;;;3.00;2.20;;;25.40;54.10;;;;;;5024454;28;20940;-73
2022/09/05 10:30:08;;;;;;;4.40;2.37;;;25.50;52.20;;;;;;5057037;28;20440;-73
2022/09/05 10:33:28;;;;;;;4.40;2.40;;;25.40;52.40;;;;;;5060552;28;21105;-73
2022/09/05 10:36:23;;;;;;;3.47;2.40;;;25.30;52.60;;;;;;5052985;28;20832;-72
2022/09/05 10:39:18;;;;;;;3.60;2.50;;;25.20;52.20;;;;;;5049538;28;20477;-72
2022/09/05 10:42:13;;;;;;;3.67;2.30;;;25.30;53.30;;;;;;5060597;28;20848;-72
2022/09/05 10:45:01;;;;;;;3.27;2.07;;;25.50;51.60;;;;;;5059631;28;20459;-72
2022/09/05 10:47:57;;;;;;;3.50;2.07;;;25.70;50.70;;;;;;5046945;28;20451;-72
2022/09/05 10:50:46;;;;;;;5.00;2.50;;;25.70;49.50;;;;;;5052561;28;20555;-73
2022/09/05 10:53:41;;;;;;;7.53;2.87;;;25.70;51.80;;;;;;5050364;28;20491;-72
2022/09/05 10:56:33;;;;;;;4.80;2.20;;;25.80;49.60;;;;;;5048232;28;20918;-73
2022/09/05 10:59:25;;;;;;;4.07;2.67;;;25.90;52.80;;;;;;5051453;28;20443;-72
2022/09/05 11:02:16;;;;;;;3.27;2.20;;;26.10;50.10;;;;;;5055212;28;20462;-72
2022/09/05 11:05:16;;;;;;;4.20;2.40;;;26.10;51.10;;;;;;5052904;28;20456;-73
2022/09/05 11:08:08;;;;;;;4.63;2.30;;;26.10;49.20;;;;;;5050408;28;20444;-72
2022/09/05 11:11:03;;;;;;;4.23;2.30;;;26.20;51.10;;;;;;5062525;28;20475;-73
2022/09/05 11:13:53;;;;;;;4.90;2.90;;;26.40;47.40;;;;;;5061879;28;20622;-73
2022/09/05 11:16:47;;;;;;;6.93;2.10;;;26.60;45.20;;;;;;5053011;28;20521;-72
2022/09/05 11:19:40;;;;;;;3.20;1.90;;;26.80;46.40;;;;;;5043413;28;20451;-72
2022/09/05 11:22:28;;;;;;;2.60;1.70;;;27.10;44.50;;;;;;5046266;28;20534;-73
2022/09/05 11:25:21;;;;;;;3.33;2.17;;;27.20;41.40;;;;;;5053939;28;20833;-73
2022/09/05 11:28:14;;;;;;;2.67;1.83;;;27.10;40.00;;;;;;5066149;28;20420;-72
2022/09/05 11:31:06;;;;;;;7.30;1.80;;;27.00;41.10;;;;;;5051592;28;20801;-73
2022/09/05 11:34:42;;;;;;;5.77;2.20;;;27.00;40.10;;;;;;5062235;28;20843;-73
2022/09/05 11:37:54;;;;;;;2.90;1.80;;;27.10;37.10;;;;;;5064447;28;20561;-72
2022/09/05 11:40:53;;;;;;;8.80;2.40;;;27.20;38.20;;;;;;5057302;28;20548;-72
2022/09/05 11:44:07;;;;;;;6.40;1.73;;;27.40;37.40;;;;;;5054926;28;20456;-73
2022/09/05 11:47:34;;;;;;;6.43;1.80;;;27.60;37.10;;;;;;5058525;28;20450;-72
2022/09/05 11:50:56;;;;;;;3.73;1.90;;;27.80;37.80;;;;;;4975813;28;20570;-72
2022/09/05 11:54:15;;;;;;;4.13;1.73;;;27.90;35.50;;;;;;5042545;28;20900;-72
2022/09/05 11:57:41;;;;;;;4.20;2.00;;;28.10;33.10;;;;;;5048861;28;20443;-72
2022/09/05 12:00:40;;;;;;;3.97;1.90;;;28.30;33.20;;;;;;5045470;28;20490;-70
2022/09/05 12:03:56;;;;;;;6.03;1.97;;;28.50;31.70;;;;;;5052410;28;20470;-70
2022/09/05 12:07:11;;;;;;;4.30;1.80;;;28.70;33.50;;;;;;5048452;28;21011;-70
2022/09/05 12:10:12;;;;;;;10.10;2.17;;;28.70;29.70;;;;;;5051386;28;20440;-70
2022/09/05 12:13:20;;;;;;;6.53;2.60;;;28.80;30.50;;;;;;5044132;28;20605;-70
2022/09/05 12:16:25;;;;;;;3.23;1.97;;;28.90;31.20;;;;;;5045728;28;20497;-69
2022/09/05 12:19:31;;;;;;;4.83;1.83;;;29.00;27.70;;;;;;5043406;28;20521;-69
2022/09/05 12:22:35;;;;;;;3.93;2.07;;;29.10;27.20;;;;;;5047639;28;20471;-70
2022/09/05 12:25:32;;;;;;;3.07;1.73;;;29.20;26.70;;;;;;5046640;28;20828;-70
2022/09/05 12:28:26;;;;;;;2.83;1.70;;;29.10;25.20;;;;;;5042196;28;20456;-70
2022/09/05 12:31:18;;;;;;;3.07;1.77;;;29.10;26.40;;;;;;5048034;28;20598;-69
2022/09/05 12:34:08;;;;;;;4.20;1.90;;;29.30;27.30;;;;;;5053778;28;20486;-69
2022/09/05 12:36:57;;;;;;;3.23;1.70;;;29.50;28.00;;;;;;5051825;28;20440;-70
2022/09/05 12:39:45;;;;;;;5.43;2.20;;;29.50;27.30;;;;;;5042005;28;20455;-69
2022/09/05 12:42:39;;;;;;;6.67;2.00;;;29.10;27.50;;;;;;5049293;28;20471;-69
2022/09/05 12:45:32;;;;;;;3.30;2.00;;;28.70;27.60;;;;;;5039259;28;20507;-69
2022/09/05 12:48:25;;;;;;;4.27;2.30;;;28.40;29.50;;;;;;5044773;28;20502;-69
2022/09/05 12:51:16;;;;;;;5.77;2.30;;;28.10;29.80;;;;;;5049128;28;20467;-70
2022/09/05 12:54:08;;;;;;;3.77;2.33;;;27.90;31.30;;;;;;5047070;28;20495;-70
2022/09/05 12:57:00;;;;;;;5.20;2.10;;;28.10;32.40;;;;;;5049440;28;20447;-70
2022/09/05 12:59:47;;;;;;;3.83;2.37;;;28.50;32.10;;;;;;5053092;28;20448;-70
2022/09/05 13:02:34;;;;;;;3.13;1.83;;;29.00;30.10;;;;;;5054222;28;20486;-70
2022/09/05 13:05:25;;;;;;;3.00;2.20;;;29.30;29.20;;;;;;5054718;28;20448;-70
2022/09/05 13:08:20;;;;;;;3.33;1.90;;;29.40;28.80;;;;;;5047084;28;20968;-70
2022/09/05 13:11:08;;;;;;;4.57;2.13;;;29.10;27.90;;;;;;5051832;28;20546;-70
2022/09/05 13:14:00;;;;;;;2.63;1.70;;;29.20;28.40;;;;;;5053167;28;20494;-70
2022/09/05 13:16:49;;;;;;;4.43;2.20;;;29.50;28.30;;;;;;5051908;28;20451;-70
2022/09/05 13:19:42;;;;;;;12.73;1.97;;;29.90;25.80;;;;;;5046419;28;20481;-70
2022/09/05 13:22:28;;;;;;;3.23;1.93;;;30.10;26.00;;;;;;5055047;28;20467;-70
2022/09/05 13:25:21;;;;;;;8.10;2.10;;;30.10;25.90;;;;;;5052889;28;20525;-70
2022/09/05 13:28:13;;;;;;;4.53;2.00;;;30.40;25.70;;;;;;5048991;28;20451;-70
2022/09/05 13:31:06;;;;;;;4.57;2.17;;;30.70;25.40;;;;;;5053576;28;21116;-71
2022/09/05 13:33:53;;;;;;;5.53;2.20;;;30.90;25.00;;;;;;5056910;28;20479;-70
2022/09/05 13:36:48;;;;;;;4.67;2.10;;;31.10;25.70;;;;;;5051092;28;20825;-71
2022/09/05 13:39:46;;;;;;;3.87;2.30;;;31.40;24.70;;;;;;5054103;28;20451;-71
2022/09/05 13:42:39;;;;;;;5.20;1.80;;;31.70;23.20;;;;;;5052503;28;20466;-71
2022/09/05 13:45:25;;;;;;;3.00;1.70;;;31.80;23.00;;;;;;5051818;28;20509;-70
2022/09/05 13:48:35;;;;;;;4.00;2.10;;;31.70;23.20;;;;;;5048148;28;20490;-71
2022/09/05 13:51:36;;;;;;;4.97;2.23;;;31.90;23.40;;;;;;5051591;28;20465;-71
2022/09/05 13:54:39;;;;;;;3.80;2.33;;;31.80;21.40;;;;;;5058874;28;20476;-71
2022/09/05 13:57:35;;;;;;;4.80;2.23;;;31.60;22.20;;;;;;5041185;28;20456;-70
2022/09/05 14:00:50;;;;;;;4.73;1.60;;;31.30;21.30;;;;;;5059773;28;20438;-71
2022/09/05 14:04:19;;;;;;;3.30;2.13;;;31.20;22.10;;;;;;5056126;28;20474;-71
2022/09/05 14:07:44;;;;;;;7.33;1.90;;;31.40;22.20;;;;;;5046963;28;20983;-71
2022/09/05 14:11:10;;;;;;;3.33;1.70;;;31.50;20.70;;;;;;5052735;28;20971;-72
2022/09/05 14:14:09;;;;;;;3.00;1.90;;;31.60;20.90;;;;;;5023692;28;20854;-72
2022/09/05 14:17:03;;;;;;;6.57;2.33;;;31.20;20.80;;;;;;5048748;28;20493;-71
2022/09/05 14:23:06;;;;;;;6.40;2.43;;;31.70;21.10;;;;;;5038663;28;20513;-71
2022/09/05 14:25:56;;;;;;;5.10;2.20;;;31.90;20.80;;;;;;5043099;28;20451;-71
2022/09/05 14:28:49;;;;;;;4.80;2.03;;;32.00;20.20;;;;;;5048062;28;20594;-71
2022/09/05 14:31:56;;;;;;;2.97;2.10;;;31.70;20.50;;;;;;5048933;28;20456;-71
2022/09/05 14:34:59;;;;;;;4.00;2.00;;;31.70;21.30;;;;;;5044813;28;20470;-71
2022/09/05 14:37:55;;;;;;;2.70;1.60;;;31.60;20.50;;;;;;5045829;28;20940;-71
2022/09/05 14:41:14;;;;;;;3.97;2.10;;;31.30;20.20;;;;;;5043620;28;20447;-71
2022/09/05 14:44:13;;;;;;;3.80;2.10;;;31.20;20.70;;;;;;5043758;28;20443;-71
2022/09/05 14:47:25;;;;;;;6.97;2.53;;;31.30;21.30;;;;;;5042167;28;20447;-71
2022/09/05 14:50:56;;;;;;;2.77;1.83;;;31.50;21.30;;;;;;5046637;28;20461;-71
2022/09/05 14:53:58;;;;;;;7.40;2.47;;;31.60;20.10;;;;;;5043938;28;20466;-71
2022/09/05 14:56:48;;;;;;;3.73;2.10;;;31.50;21.10;;;;;;5044982;28;20525;-71
2022/09/05 14:59:37;;;;;;;14.80;2.23;;;31.60;20.50;;;;;;5042885;28;20451;-71
2022/09/05 15:02:27;;;;;;;4.40;2.23;;;31.60;20.10;;;;;;5045558;28;20467;-71
2022/09/05 15:05:20;;;;;;;3.67;2.33;;;31.40;19.40;;;;;;5043060;28;20455;-71
2022/09/05 15:08:07;;;;;;;3.07;1.87;;;31.40;19.90;;;;;;5043455;28;20450;-71
2022/09/05 15:10:57;;;;;;;4.47;2.30;;;31.30;19.50;;;;;;5047339;28;20452;-71
2022/09/05 15:13:45;;;;;;;3.23;1.77;;;31.20;18.30;;;;;;5051833;28;20475;-72
2022/09/05 15:16:34;;;;;;;3.07;1.87;;;31.10;18.70;;;;;;5043577;28;20522;-71
2022/09/05 15:19:51;;;;;;;2.87;1.77;;;31.20;18.40;;;;;;5047193;28;20463;-72
2022/09/05 15:22:40;;;;;;;4.80;1.87;;;31.10;18.80;;;;;;5046433;28;20475;-71
2022/09/05 15:25:27;;;;;;;4.03;1.73;;;31.20;19.00;;;;;;5044783;28;20530;-71
2022/09/05 15:28:20;;;;;;;3.80;1.90;;;31.20;19.70;;;;;;5042549;28;21028;-72
2022/09/05 15:31:09;;;;;;;3.23;1.97;;;31.30;19.50;;;;;;5046742;28;20442;-71
2022/09/05 15:33:55;;;;;;;5.37;2.20;;;31.30;18.50;;;;;;5044058;28;20484;-71